Time;durP1;ratioP1;P1;durP2;ratioP2;P2;SDS_P1;SDS_P2;PMS_P1;PMS_P2;Temp;Humidity;BMP_temperature;BMP_pressure;BME280_temperature;BME280_humidity;BME280_pressure;Samples;Min_cycle;Max_cycle;Signal;HPM_P1;HPM_P2
2022/12/02 00:02:17;;;;;;;36.60;24.53;;;;;;;1.60;85.10;96018.00;1736826;83;21058;-67
2022/12/02 00:04:44;;;;;;;44.70;27.00;;;;;;;1.59;85.36;96020.16;1708141;83;21009;-66
2022/12/02 00:07:19;;;;;;;47.27;27.60;;;;;;;1.59;85.49;96026.66;1737068;82;21058;-67
2022/12/02 00:09:45;;;;;;;42.23;25.80;;;;;;;1.61;85.48;96027.97;1736913;83;21038;-67
2022/12/02 00:12:25;;;;;;;43.13;27.13;;;;;;;1.63;84.96;96029.77;1723884;83;21032;-67
2022/12/02 00:15:02;;;;;;;39.43;22.70;;;;;;;1.62;85.05;96028.45;1725794;83;21032;-67
2022/12/02 00:17:29;;;;;;;40.67;23.93;;;;;;;1.61;85.04;96027.54;1706378;84;21054;-67
2022/12/02 00:19:55;;;;;;;44.07;24.10;;;;;;;1.55;84.68;96026.55;1724009;83;20981;-67
2022/12/02 00:22:22;;;;;;;44.43;24.73;;;;;;;1.54;84.89;96024.38;1701818;84;20998;-68
2022/12/02 00:24:48;;;;;;;39.87;23.77;;;;;;;1.56;85.12;96022.66;1737143;83;21450;-67
2022/12/02 00:27:15;;;;;;;47.70;25.90;;;;;;;1.63;85.23;96031.06;1737139;82;21027;-67
2022/12/02 00:29:42;;;;;;;45.90;27.17;;;;;;;1.66;85.28;96020.75;1737093;83;21027;-67
2022/12/02 00:32:08;;;;;;;41.33;23.80;;;;;;;1.75;85.30;96020.49;1736929;82;21051;-67
2022/12/02 00:34:35;;;;;;;39.03;23.73;;;;;;;1.73;85.20;96022.63;1736983;82;21525;-68
2022/12/02 00:37:01;;;;;;;40.37;23.33;;;;;;;1.76;85.43;96032.64;1737051;82;21103;-67
2022/12/02 00:39:28;;;;;;;36.07;21.17;;;;;;;1.79;84.94;96022.30;1736867;83;21523;-67
2022/12/02 00:41:54;;;;;;;32.97;20.93;;;;;;;1.81;84.88;96025.81;1736933;83;21348;-67
2022/12/02 00:47:06;;;;;;;41.90;22.60;;;;;;;1.80;84.80;96026.25;1701625;83;21100;-67
2022/12/02 00:49:33;;;;;;;42.63;22.30;;;;;;;1.87;85.29;96024.24;1732883;83;21101;-67
2022/12/02 00:52:00;;;;;;;34.43;20.20;;;;;;;1.95;85.22;96022.67;1732985;83;21444;-67
2022/12/02 00:54:26;;;;;;;34.83;21.40;;;;;;;2.01;85.41;96015.41;1732943;83;21038;-67
2022/12/02 00:56:53;;;;;;;37.40;21.60;;;;;;;2.11;85.54;96015.19;1732560;83;21058;-67
2022/12/02 00:59:20;;;;;;;34.57;21.33;;;;;;;2.18;84.79;96019.67;1732620;83;21060;-67
2022/12/02 01:01:47;;;;;;;36.67;22.23;;;;;;;2.14;84.22;96007.44;1732799;83;21066;-67
2022/12/02 01:04:13;;;;;;;40.23;23.27;;;;;;;2.05;83.86;96005.53;1708153;83;21054;-67
2022/12/02 01:06:40;;;;;;;34.57;21.80;;;;;;;1.99;83.85;96018.83;1733051;83;21013;-67
2022/12/02 01:09:08;;;;;;;38.73;21.60;;;;;;;1.94;84.33;96011.83;1733417;83;21030;-67
2022/12/02 01:11:35;;;;;;;34.47;21.30;;;;;;;1.89;84.36;96017.75;1732729;83;21045;-67
2022/12/02 01:14:02;;;;;;;38.50;23.00;;;;;;;1.84;84.25;96007.27;1732701;83;21069;-67
2022/12/02 01:16:28;;;;;;;40.07;25.17;;;;;;;1.78;84.44;96011.45;1733075;83;21009;-67
2022/12/02 01:18:55;;;;;;;36.97;22.13;;;;;;;1.78;84.74;96016.22;1732785;83;21520;-67
2022/12/02 01:21:22;;;;;;;38.57;23.03;;;;;;;1.78;84.68;96014.05;1732797;83;21556;-67
2022/12/02 01:23:50;;;;;;;39.10;24.00;;;;;;;1.75;84.31;96009.66;1732342;83;21030;-67
2022/12/02 01:26:16;;;;;;;43.60;24.27;;;;;;;1.73;84.30;96014.81;1732743;83;21046;-67
2022/12/02 01:28:43;;;;;;;39.77;23.90;;;;;;;1.72;84.33;96016.97;1732930;83;21045;-67
2022/12/02 01:31:09;;;;;;;38.20;23.53;;;;;;;1.68;84.40;96006.03;1733020;83;21042;-67
2022/12/02 01:33:36;;;;;;;37.03;22.50;;;;;;;1.66;85.01;96012.95;1732583;83;21088;-67
2022/12/02 01:36:03;;;;;;;40.90;23.43;;;;;;;1.65;84.84;96012.47;1732863;83;20994;-67
2022/12/02 01:38:30;;;;;;;37.30;22.97;;;;;;;1.66;84.96;96010.34;1732647;83;20987;-67
2022/12/02 01:40:57;;;;;;;38.73;23.40;;;;;;;1.67;84.87;96008.62;1732440;83;21520;-67
2022/12/02 01:43:24;;;;;;;39.83;23.17;;;;;;;1.68;84.80;96009.94;1732566;83;21500;-67
2022/12/02 01:45:51;;;;;;;34.27;21.13;;;;;;;1.68;84.69;96006.46;1732826;83;21010;-67
2022/12/02 01:48:18;;;;;;;34.27;20.30;;;;;;;1.68;84.70;96002.13;1736563;82;20995;-67
2022/12/02 01:50:46;;;;;;;30.20;19.00;;;;;;;1.68;84.74;96003.86;1736828;83;21035;-67
2022/12/02 01:53:13;;;;;;;29.53;19.73;;;;;;;1.73;85.33;96008.31;1736861;83;20995;-67
2022/12/02 01:55:40;;;;;;;29.50;19.83;;;;;;;1.77;85.41;96004.50;1736587;82;21036;-67
2022/12/02 01:58:11;;;;;;;32.60;20.93;;;;;;;1.78;85.23;95999.73;1737078;82;21075;-67
2022/12/02 02:00:38;;;;;;;32.63;20.77;;;;;;;1.83;85.68;95998.98;1736971;83;21035;-67
2022/12/02 02:03:05;;;;;;;35.10;21.93;;;;;;;1.86;85.42;96007.28;1737172;82;21027;-67
2022/12/02 02:05:33;;;;;;;33.77;20.67;;;;;;;1.97;86.21;96006.23;1737057;83;21086;-67
2022/12/02 02:08:07;;;;;;;36.10;21.60;;;;;;;2.04;85.54;96002.48;1736765;82;21075;-67
2022/12/02 02:10:37;;;;;;;38.33;21.93;;;;;;;2.01;84.89;96008.03;1737099;83;21038;-67
2022/12/02 02:13:06;;;;;;;34.37;22.00;;;;;;;2.04;85.53;96002.48;1736670;83;21027;-67
2022/12/02 02:15:39;;;;;;;30.97;20.43;;;;;;;2.13;85.36;96000.05;1723867;83;21031;-67
2022/12/02 02:18:06;;;;;;;31.33;20.23;;;;;;;2.09;84.60;96007.36;1702029;84;21049;-67
2022/12/02 02:20:37;;;;;;;34.60;20.03;;;;;;;2.02;84.62;96010.69;1737015;83;20999;-67
2022/12/02 02:23:09;;;;;;;29.60;19.77;;;;;;;2.05;85.35;96001.63;1737092;83;21027;-66
2022/12/02 02:25:51;;;;;;;29.33;17.73;;;;;;;2.10;85.00;96009.11;1737198;82;21023;-67
2022/12/02 02:28:23;;;;;;;26.93;18.30;;;;;;;2.01;84.57;96007.60;1736797;82;21528;-67
2022/12/02 02:30:55;;;;;;;28.37;19.40;;;;;;;2.02;85.09;96004.61;1736985;82;21045;-67
2022/12/02 02:33:25;;;;;;;30.80;19.30;;;;;;;2.00;85.15;96007.16;1737223;83;20992;-67
2022/12/02 02:35:53;;;;;;;32.07;19.17;;;;;;;2.02;85.31;96002.88;1736879;82;20995;-67
2022/12/02 02:38:23;;;;;;;29.43;18.90;;;;;;;2.06;85.05;96005.97;1737048;82;21489;-67
2022/12/02 02:40:51;;;;;;;29.50;18.50;;;;;;;2.10;84.97;96005.63;1736988;83;21027;-67
2022/12/02 02:43:21;;;;;;;27.67;17.60;;;;;;;2.09;84.51;96008.67;1736844;83;21008;-67
2022/12/02 02:45:49;;;;;;;23.73;15.67;;;;;;;2.05;84.24;96007.27;1736897;83;21067;-67
2022/12/02 02:48:18;;;;;;;22.27;14.27;;;;;;;1.99;84.29;96002.81;1726000;83;21176;-67
2022/12/02 02:50:47;;;;;;;27.33;17.10;;;;;;;1.99;84.69;96006.72;1727069;83;21013;-67
2022/12/02 02:53:19;;;;;;;27.40;17.20;;;;;;;2.04;85.14;96009.00;1726965;83;21016;-67
2022/12/02 02:55:46;;;;;;;32.13;20.13;;;;;;;2.15;85.24;96012.69;1726843;83;21498;-67
2022/12/02 02:58:18;;;;;;;34.97;20.40;;;;;;;2.24;85.23;96014.58;1726666;83;21179;-67
2022/12/02 03:00:50;;;;;;;;;;;;;;;2.32;84.69;96013.03;1729643;83;21043;-67
2022/12/02 03:03:21;;;;;;;30.90;18.60;;;;;;;2.24;83.94;96007.20;1724262;83;20116;-67
2022/12/02 03:05:51;;;;;;;28.87;18.23;;;;;;;2.18;84.24;96009.70;1702463;83;21490;-67
2022/12/02 03:08:21;;;;;;;29.40;18.50;;;;;;;2.21;84.10;96013.66;1727084;83;21067;-67
2022/12/02 03:10:50;;;;;;;38.10;22.40;;;;;;;2.14;83.84;96007.44;1726899;83;21505;-67
2022/12/02 03:13:17;;;;;;;34.20;21.57;;;;;;;2.05;83.86;96006.83;1726881;83;21517;-67
2022/12/02 03:15:44;;;;;;;29.77;19.37;;;;;;;2.00;83.93;96005.86;1727074;83;21059;-67
2022/12/02 03:18:11;;;;;;;42.00;22.67;;;;;;;1.99;84.37;96010.62;1726945;83;21051;-67
2022/12/02 03:20:38;;;;;;;26.87;17.60;;;;;;;2.01;84.76;96008.91;1727054;83;20988;-67
2022/12/02 03:23:05;;;;;;;29.10;18.13;;;;;;;1.98;84.36;96006.25;1726793;83;21047;-67
2022/12/02 03:25:31;;;;;;;46.23;25.83;;;;;;;1.92;84.55;96004.83;1727054;83;21482;-67
2022/12/02 03:27:59;;;;;;;48.67;28.17;;;;;;;1.92;84.99;96007.44;1726751;83;21020;-67
2022/12/02 03:30:26;;;;;;;44.67;26.03;;;;;;;1.99;85.17;96007.12;1726517;83;21488;-67
2022/12/02 03:32:53;;;;;;;42.50;24.50;;;;;;;1.92;84.70;95996.59;1727160;83;21012;-67
2022/12/02 03:35:20;;;;;;;32.13;19.03;;;;;;;1.90;84.61;96006.09;1726912;83;21032;-67
2022/12/02 03:37:47;;;;;;;38.93;23.70;;;;;;;1.90;84.46;96007.81;1726928;83;21032;-67
2022/12/02 03:40:14;;;;;;;43.17;26.40;;;;;;;1.89;84.38;96006.04;1726809;83;21529;-67
2022/12/02 03:42:41;;;;;;;39.60;24.23;;;;;;;1.89;84.66;96004.73;1726952;83;21007;-67
2022/12/02 03:45:11;;;;;;;37.97;22.73;;;;;;;1.92;84.97;95998.33;1726734;83;21027;-67
2022/12/02 03:47:39;;;;;;;36.83;20.13;;;;;;;1.95;84.86;96000.55;1727855;83;21024;-67
2022/12/02 03:50:07;;;;;;;34.77;21.57;;;;;;;1.94;85.23;96005.31;1729017;83;21134;-67
2022/12/02 03:52:34;;;;;;;36.17;21.67;;;;;;;1.92;84.86;96007.44;1728862;83;21537;-67
2022/12/02 03:55:01;;;;;;;42.47;24.67;;;;;;;1.88;84.79;96001.69;1729108;83;21016;-67
2022/12/02 03:57:33;;;;;;;42.83;26.03;;;;;;;1.89;85.35;96015.14;1728853;83;21522;-67
2022/12/02 04:00:00;;;;;;;37.50;23.17;;;;;;;1.95;85.50;96005.76;1729192;83;21059;-67
2022/12/02 04:02:27;;;;;;;37.77;23.07;;;;;;;1.94;85.05;96007.02;1729138;83;21023;-67
2022/12/02 04:04:54;;;;;;;38.17;22.43;;;;;;;1.91;84.94;96009.56;1729110;83;21015;-67
2022/12/02 04:07:20;;;;;;;35.43;21.83;;;;;;;1.91;85.10;96004.35;1728785;83;21546;-67
2022/12/02 04:09:47;;;;;;;43.00;24.00;;;;;;;1.95;85.30;96007.48;1728772;83;21048;-67
2022/12/02 04:12:13;;;;;;;42.67;25.97;;;;;;;2.05;86.00;96005.53;1728634;83;21064;-67
2022/12/02 04:14:40;;;;;;;42.97;24.97;;;;;;;2.18;85.92;96005.36;1729075;83;21051;-67
2022/12/02 04:17:06;;;;;;;36.90;23.07;;;;;;;2.27;85.74;96005.95;1729310;83;21027;-67
2022/12/02 04:19:33;;;;;;;40.77;23.30;;;;;;;2.29;85.42;95996.45;1728977;83;21031;-67
2022/12/02 04:22:00;;;;;;;33.90;21.00;;;;;;;2.34;85.75;95998.33;1729195;83;21024;-67
2022/12/02 04:24:27;;;;;;;35.57;21.60;;;;;;;2.38;85.11;96002.72;1729070;83;21055;-67
2022/12/02 04:26:55;;;;;;;36.07;22.20;;;;;;;2.30;84.60;96012.12;1728605;83;21357;-67
2022/12/02 04:29:21;;;;;;;39.37;24.10;;;;;;;2.24;84.49;96013.70;1728864;83;20996;-66
2022/12/02 04:31:48;;;;;;;42.47;24.37;;;;;;;2.21;84.60;96023.64;1728808;83;21019;-67
2022/12/02 04:34:14;;;;;;;40.97;24.30;;;;;;;2.15;84.59;96014.41;1728882;83;21020;-66
2022/12/02 04:36:41;;;;;;;37.93;23.47;;;;;;;2.19;85.09;96020.55;1729118;83;21465;-66
2022/12/02 04:39:08;;;;;;;39.97;24.97;;;;;;;2.23;84.97;96028.45;1728712;83;21012;-66
2022/12/02 04:41:34;;;;;;;40.43;23.37;;;;;;;2.23;84.86;96019.34;1729069;83;20952;-66
2022/12/02 04:44:02;;;;;;;42.17;24.67;;;;;;;2.27;85.15;96017.27;1728598;83;21589;-66
2022/12/02 04:46:29;;;;;;;40.30;24.33;;;;;;;2.26;84.86;96019.40;1729168;83;20972;-66
2022/12/02 04:48:55;;;;;;;39.50;24.30;;;;;;;2.22;84.52;96018.00;1724680;83;20992;-66
2022/12/02 04:51:22;;;;;;;40.20;24.53;;;;;;;2.14;84.53;96022.66;1701724;84;21097;-66
2022/12/02 04:53:48;;;;;;;38.80;23.37;;;;;;;2.05;84.38;96016.38;1737210;83;21019;-66
2022/12/02 04:56:15;;;;;;;42.77;25.50;;;;;;;1.93;84.43;96016.55;1736956;82;20996;-66
2022/12/02 04:58:41;;;;;;;44.03;25.93;;;;;;;1.87;84.64;96023.37;1737197;82;21023;-66
2022/12/02 05:01:08;;;;;;;43.73;25.47;;;;;;;1.82;84.70;96022.39;1737093;82;21035;-67
2022/12/02 05:03:35;;;;;;;40.27;25.63;;;;;;;1.85;85.35;96020.72;1736964;83;21517;-67
2022/12/02 05:06:02;;;;;;;48.47;27.13;;;;;;;1.89;85.44;96021.66;1723899;83;21008;-67
2022/12/02 05:08:29;;;;;;;46.97;26.30;;;;;;;1.89;85.20;96021.66;1701952;84;21006;-67
2022/12/02 05:10:55;;;;;;;43.47;25.40;;;;;;;1.86;85.22;96027.67;1737109;83;21501;-67
2022/12/02 05:13:22;;;;;;;42.03;25.37;;;;;;;1.83;85.08;96028.04;1736979;83;21500;-67
2022/12/02 05:15:48;;;;;;;44.53;24.40;;;;;;;1.84;85.33;96031.98;1736598;83;21492;-67
2022/12/02 05:18:16;;;;;;;41.20;25.27;;;;;;;1.94;85.86;96034.34;1723549;83;21032;-66
2022/12/02 05:20:43;;;;;;;36.27;23.70;;;;;;;2.03;86.01;96031.95;1723874;83;21028;-67
2022/12/02 05:23:09;;;;;;;27.00;15.87;;;;;;;2.12;86.11;96036.48;1701759;84;21154;-66
2022/12/02 05:25:36;;;;;;;31.37;20.77;;;;;;;2.23;86.35;96034.09;1736830;83;21023;-66
2022/12/02 05:28:03;;;;;;;33.47;19.47;;;;;;;2.30;85.43;96038.59;1736801;83;21009;-66
2022/12/02 05:30:30;;;;;;;20.70;14.53;;;;;;;2.27;84.92;96034.59;1723683;83;21024;-66
2022/12/02 05:32:57;;;;;;;28.50;17.90;;;;;;;2.32;85.74;96028.66;1702022;84;21026;-66
2022/12/02 05:35:24;;;;;;;27.60;16.33;;;;;;;2.36;85.02;96030.89;1737185;83;21054;-66
2022/12/02 05:37:50;;;;;;;28.37;17.30;;;;;;;2.48;85.99;96027.66;1737065;82;20999;-66
2022/12/02 05:40:17;;;;;;;28.27;18.40;;;;;;;2.49;85.26;96027.66;1737076;82;21513;-67
2022/12/02 05:42:43;;;;;;;34.23;20.03;;;;;;;2.58;85.69;96024.38;1736771;83;20980;-66
2022/12/02 05:45:21;;;;;;;30.40;18.73;;;;;;;2.47;84.31;96022.87;1723822;83;21502;-66
2022/12/02 05:47:53;;;;;;;28.40;17.60;;;;;;;2.31;84.05;96032.52;1720542;83;21024;-67
2022/12/02 05:50:22;;;;;;;29.87;19.67;;;;;;;2.21;84.09;96034.48;1717639;83;21040;-67
2022/12/02 05:52:50;;;;;;;30.43;19.40;;;;;;;2.18;84.82;96030.52;1717305;83;21819;-67
2022/12/02 05:55:21;;;;;;;35.27;20.67;;;;;;;2.16;84.71;96037.86;1717434;83;21032;-66
2022/12/02 05:57:48;;;;;;;28.13;19.60;;;;;;;2.21;85.08;96035.78;1717085;83;21024;-66
2022/12/02 06:00:22;;;;;;;30.07;19.43;;;;;;;2.14;84.97;96034.77;1717539;83;21024;-66
2022/12/02 06:02:57;;;;;;;31.27;19.47;;;;;;;2.08;84.66;96035.95;1717373;83;21025;-66
2022/12/02 06:05:27;;;;;;;27.00;17.17;;;;;;;1.99;84.60;96037.05;1717389;83;21009;-66
2022/12/02 06:08:19;;;;;;;26.47;16.03;;;;;;;1.93;84.86;96037.37;1717436;83;21040;-66
2022/12/02 06:10:53;;;;;;;26.50;16.87;;;;;;;1.93;85.17;96043.88;1717605;83;21035;-66
2022/12/02 06:13:26;;;;;;;29.07;17.27;;;;;;;1.95;85.40;96042.63;1717052;83;20997;-66
2022/12/02 06:15:54;;;;;;;27.32;16.93;;;;;;;1.92;85.29;96046.47;1717635;83;21008;-66
2022/12/02 06:18:31;;;;;;;28.00;16.77;;;;;;;1.88;85.50;96048.10;1717298;83;21020;-66
2022/12/02 06:21:10;;;;;;;29.10;17.70;;;;;;;1.89;85.54;96051.58;1717342;83;21087;-66
2022/12/02 06:23:43;;;;;;;27.30;17.60;;;;;;;1.94;85.72;96056.06;1700726;83;21098;-66
2022/12/02 06:26:16;;;;;;;31.30;18.57;;;;;;;2.02;85.97;96053.63;1732875;83;20995;-66
2022/12/02 06:28:46;;;;;;;36.38;18.30;;;;;;;2.07;85.71;96052.43;1732844;83;21055;-66
2022/12/02 06:31:20;;;;;;;38.87;17.83;;;;;;;2.11;85.63;96051.20;1732953;83;21035;-66
2022/12/02 06:33:50;;;;;;;26.10;17.03;;;;;;;2.11;85.16;96055.53;1732824;83;21058;-67
2022/12/02 06:36:26;;;;;;;30.40;18.30;;;;;;;2.07;85.20;96055.03;1732828;83;21027;-67
2022/12/02 06:39:01;;;;;;;27.13;17.37;;;;;;;2.06;85.06;96058.46;1732497;83;21020;-67
2022/12/02 06:41:36;;;;;;;31.73;18.63;;;;;;;2.04;85.00;96061.45;1732801;83;21019;-67
2022/12/02 06:47:30;;;;;;;;;;;;;;;2.21;85.65;96067.02;1735579;83;21003;-67
2022/12/02 06:50:07;;;;;;;28.57;16.87;;;;;;;2.21;85.09;96066.59;1702283;82;20413;-66
2022/12/02 06:52:44;;;;;;;33.83;19.03;;;;;;;2.19;84.99;96066.11;1755031;82;21040;-66
2022/12/02 06:55:32;;;;;;;37.83;21.23;;;;;;;2.16;84.98;96060.41;1755679;81;20980;-66
2022/12/02 06:58:28;;;;;;;34.47;21.10;;;;;;;2.24;85.54;96062.75;1755637;81;20987;-66
2022/12/02 07:01:09;;;;;;;32.93;21.33;;;;;;;2.34;85.33;96061.22;1709098;84;20986;-67
2022/12/02 07:03:46;;;;;;;75.17;34.53;;;;;;;2.35;85.08;96065.17;1753529;82;21505;-66
2022/12/02 07:06:20;;;;;;;54.50;27.67;;;;;;;2.42;85.27;96062.67;1755850;82;21012;-66
2022/12/02 07:08:48;;;;;;;39.20;22.20;;;;;;;2.44;85.08;96063.59;1710123;84;21542;-66
2022/12/02 07:11:49;;;;;;;39.40;23.20;;;;;;;2.52;85.49;96065.92;1755427;82;21087;-66
2022/12/02 07:14:49;;;;;;;39.97;23.53;;;;;;;2.63;85.69;96070.06;1755566;82;21027;-66
2022/12/02 07:17:27;;;;;;;46.80;24.60;;;;;;;2.71;85.21;96067.17;1755918;82;21012;-67
2022/12/02 07:20:09;;;;;;;41.63;22.87;;;;;;;2.66;84.31;96064.91;1755253;82;21021;-67
2022/12/02 07:22:59;;;;;;;40.73;22.62;;;;;;;2.54;84.02;96076.82;1740007;82;21503;-67
2022/12/02 07:25:46;;;;;;;41.77;24.77;;;;;;;2.47;84.21;96072.36;1755613;82;21027;-67
2022/12/02 07:28:33;;;;;;;42.20;23.03;;;;;;;2.49;84.55;96078.45;1755662;82;21578;-67
2022/12/02 07:31:11;;;;;;;36.07;21.17;;;;;;;2.48;84.41;96078.02;1709540;84;21034;-67
2022/12/02 07:33:38;;;;;;;29.83;18.37;;;;;;;2.47;84.30;96074.97;1755709;82;21066;-67
2022/12/02 07:36:06;;;;;;;29.30;18.67;;;;;;;2.47;84.38;96076.27;1755726;82;21466;-67
2022/12/02 07:38:32;;;;;;;29.43;17.57;;;;;;;2.50;84.37;96081.97;1755816;81;21183;-67
2022/12/02 07:40:59;;;;;;;30.30;17.73;;;;;;;2.52;84.30;96078.94;1755792;81;21494;-66
2022/12/02 07:43:26;;;;;;;24.50;15.57;;;;;;;2.56;84.41;96086.85;1755466;82;21043;-66
2022/12/02 07:45:53;;;;;;;27.07;16.90;;;;;;;2.61;84.49;96089.55;1755802;81;21497;-66
2022/12/02 07:48:19;;;;;;;26.23;16.73;;;;;;;2.72;84.56;96087.16;1753413;81;21156;-66
2022/12/02 07:50:46;;;;;;;27.73;16.77;;;;;;;2.80;84.24;96081.27;1747605;82;21036;-66
2022/12/02 07:53:13;;;;;;;24.23;16.30;;;;;;;2.86;84.06;96077.89;1747769;82;21518;-66
2022/12/02 07:55:40;;;;;;;27.23;17.00;;;;;;;2.89;84.01;96075.33;1747926;82;20984;-66
2022/12/02 07:58:06;;;;;;;25.93;17.10;;;;;;;2.96;84.01;96071.13;1747254;82;21104;-66
2022/12/02 08:00:34;;;;;;;26.67;17.03;;;;;;;3.10;84.39;96080.08;1747771;82;20992;-67
2022/12/02 08:03:01;;;;;;;26.90;16.50;;;;;;;3.22;84.27;96071.58;1747807;82;21016;-66
2022/12/02 08:05:28;;;;;;;27.57;17.63;;;;;;;3.31;83.40;96080.00;1747620;82;21008;-66
2022/12/02 08:07:55;;;;;;;25.97;18.03;;;;;;;3.28;82.63;96078.66;1747454;82;21072;-66
2022/12/02 08:10:22;;;;;;;27.93;17.50;;;;;;;3.29;83.09;96085.17;1747334;82;21028;-66
2022/12/02 08:12:49;;;;;;;25.20;15.73;;;;;;;3.37;83.00;96080.96;1747549;82;21462;-67
2022/12/02 08:15:16;;;;;;;23.93;16.23;;;;;;;3.37;82.49;96084.88;1747467;82;21100;-67
2022/12/02 08:17:42;;;;;;;23.40;15.07;;;;;;;3.42;81.77;96083.66;1747475;82;21068;-67
2022/12/02 08:20:11;;;;;;;21.70;14.03;;;;;;;3.38;81.45;96080.56;1747729;82;20992;-67
2022/12/02 08:22:38;;;;;;;23.03;15.03;;;;;;;3.37;81.27;96084.00;1747590;82;21001;-67
2022/12/02 08:25:06;;;;;;;25.00;15.13;;;;;;;3.38;81.06;96085.78;1747806;82;20996;-66
2022/12/02 08:27:33;;;;;;;23.00;15.80;;;;;;;3.35;80.62;96085.30;1748053;82;21067;-67
2022/12/02 08:30:00;;;;;;;23.90;15.50;;;;;;;3.36;81.10;96078.34;1747564;82;21028;-66
2022/12/02 08:32:26;;;;;;;26.20;16.27;;;;;;;3.41;81.05;96081.48;1747610;82;20988;-66
2022/12/02 08:34:53;;;;;;;23.57;15.33;;;;;;;3.46;81.15;96086.78;1747715;82;20981;-66
2022/12/02 08:37:20;;;;;;;20.07;13.13;;;;;;;3.50;81.17;96075.52;1747663;82;21016;-66
2022/12/02 08:39:46;;;;;;;21.97;13.23;;;;;;;3.55;79.76;96081.69;1747690;82;21470;-66
2022/12/02 08:42:13;;;;;;;21.37;13.10;;;;;;;3.56;79.86;96076.94;1747745;82;21024;-66
2022/12/02 08:44:40;;;;;;;21.43;12.97;;;;;;;3.60;79.74;96073.94;1747655;82;20992;-66
2022/12/02 08:47:06;;;;;;;23.17;13.80;;;;;;;3.66;79.72;96074.06;1747141;82;21143;-66
2022/12/02 08:49:33;;;;;;;21.90;14.93;;;;;;;3.73;79.08;96072.41;1749294;82;21056;-66
2022/12/02 08:52:00;;;;;;;22.73;13.73;;;;;;;3.76;78.79;96072.04;1750346;81;21027;-67
2022/12/02 08:54:27;;;;;;;24.43;12.67;;;;;;;3.82;79.04;96072.12;1750177;82;21091;-67
2022/12/02 08:56:55;;;;;;;23.70;13.70;;;;;;;3.81;78.68;96072.98;1750245;82;21040;-66
2022/12/02 08:59:22;;;;;;;18.67;11.93;;;;;;;3.84;78.00;96069.55;1750528;82;21503;-67
2022/12/02 09:01:48;;;;;;;20.17;12.80;;;;;;;3.88;77.32;96067.41;1750549;82;21003;-66
2022/12/02 09:04:15;;;;;;;20.00;12.97;;;;;;;3.88;77.96;96068.31;1750188;82;21066;-67
2022/12/02 09:06:42;;;;;;;22.63;13.40;;;;;;;3.93;78.05;96059.66;1750536;82;21028;-67
2022/12/02 09:09:09;;;;;;;18.60;12.00;;;;;;;3.97;77.67;96057.55;1750425;82;21538;-67
2022/12/02 09:11:36;;;;;;;20.00;12.87;;;;;;;3.97;77.33;96064.08;1750574;81;20962;-67
2022/12/02 09:14:03;;;;;;;27.30;15.27;;;;;;;3.98;77.67;96058.89;1750280;82;21490;-66
2022/12/02 09:16:29;;;;;;;24.23;14.97;;;;;;;4.02;77.09;96059.36;1750586;82;21450;-66
2022/12/02 09:18:57;;;;;;;29.57;20.33;;;;;;;4.09;77.27;96061.20;1750527;82;21489;-66
2022/12/02 09:21:23;;;;;;;339.23;187.13;;;;;;;4.19;77.22;96062.66;1750410;82;20992;-66
2022/12/02 09:23:50;;;;;;;27.10;15.80;;;;;;;4.27;77.44;96055.78;1750552;82;21008;-66
2022/12/02 09:26:18;;;;;;;38.73;25.87;;;;;;;4.30;76.43;96051.91;1751222;82;20972;-66
2022/12/02 09:28:45;;;;;;;22.57;14.63;;;;;;;4.42;77.25;96057.72;1750144;82;21475;-66
2022/12/02 09:31:12;;;;;;;20.27;13.63;;;;;;;4.52;76.51;96054.36;1750586;82;21092;-66
2022/12/02 09:33:39;;;;;;;17.80;11.30;;;;;;;4.63;76.79;96053.17;1750290;82;21039;-67
2022/12/02 09:36:07;;;;;;;15.80;10.83;;;;;;;4.75;76.02;96045.04;1750341;82;21060;-66
2022/12/02 09:38:34;;;;;;;17.57;11.43;;;;;;;4.90;74.99;96044.34;1750462;82;21074;-66
2022/12/02 09:41:02;;;;;;;17.47;10.90;;;;;;;5.07;76.60;96040.59;1750550;82;21501;-67
2022/12/02 09:43:29;;;;;;;16.27;11.27;;;;;;;5.34;76.67;96049.55;1750079;82;21099;-67
2022/12/02 09:45:56;;;;;;;16.57;11.40;;;;;;;5.57;75.81;96046.71;1750359;82;21071;-67
2022/12/02 09:48:24;;;;;;;15.27;10.77;;;;;;;6.14;75.02;96046.25;1750437;82;21016;-68
2022/12/02 09:50:52;;;;;;;15.23;11.07;;;;;;;6.62;72.23;96034.25;1750418;81;21088;-67
2022/12/02 09:53:21;;;;;;;14.60;10.63;;;;;;;6.68;70.28;96036.47;1750210;81;21135;-65
2022/12/02 09:55:47;;;;;;;16.60;11.65;;;;;;;6.66;70.80;96034.71;1750626;81;21000;-70
2022/12/02 09:58:18;;;;;;;18.23;11.28;;;;;;;6.66;70.77;96036.89;1750320;82;21062;-66
2022/12/02 10:00:46;;;;;;;14.87;10.60;;;;;;;6.58;69.46;96035.99;1750406;81;21486;-66
2022/12/02 10:03:16;;;;;;;16.97;10.33;;;;;;;6.52;70.42;96040.33;1750464;82;21054;-69
2022/12/02 10:05:44;;;;;;;18.05;10.48;;;;;;;6.46;69.99;96041.19;1750509;81;20996;-70
2022/12/02 10:08:19;;;;;;;13.33;9.77;;;;;;;6.46;71.02;96040.73;1750484;82;21197;-70
2022/12/02 10:10:46;;;;;;;15.32;10.78;;;;;;;6.45;70.16;96046.87;1750388;82;21000;-72
2022/12/02 10:13:17;;;;;;;15.87;11.30;;;;;;;6.42;69.95;96049.89;1750403;82;21085;-71
2022/12/02 10:15:44;;;;;;;17.62;13.05;;;;;;;6.35;70.58;96045.08;1750379;82;21004;-71
2022/12/02 10:18:21;;;;;;;16.80;10.87;;;;;;;6.32;69.83;96045.03;1750551;82;21039;-71
2022/12/02 10:20:49;;;;;;;17.30;10.40;;;;;;;6.20;69.36;96044.55;1750483;82;21004;-71
2022/12/02 10:23:21;;;;;;;15.47;10.23;;;;;;;6.17;70.05;96041.89;1750498;81;21012;-71
2022/12/02 10:25:57;;;;;;;14.15;9.15;;;;;;;6.21;70.59;96044.11;1750646;82;21438;-71
2022/12/02 10:28:30;;;;;;;12.67;8.67;;;;;;;6.22;70.66;96044.54;1750519;82;21038;-71
2022/12/02 10:31:13;;;;;;;14.10;10.70;;;;;;;6.19;70.09;96047.16;1750544;82;21509;-71
2022/12/02 10:33:51;;;;;;;14.53;9.18;;;;;;;6.09;69.99;96046.22;1749320;82;21032;-71
2022/12/02 10:36:42;;;;;;;15.17;9.27;;;;;;;6.01;70.23;96046.61;1749543;82;21043;-71
2022/12/02 10:39:23;;;;;;;14.97;9.10;;;;;;;5.95;70.24;96044.84;1750347;81;21008;-71
2022/12/02 10:42:07;;;;;;;12.57;8.13;;;;;;;5.96;70.94;96037.41;1750585;82;21004;-71
2022/12/02 10:44:45;;;;;;;14.13;8.90;;;;;;;5.93;70.02;96037.80;1749182;82;21489;-69
2022/12/02 10:47:17;;;;;;;15.17;10.90;;;;;;;5.84;70.23;96038.59;1749357;82;21035;-73
2022/12/02 10:49:57;;;;;;;13.43;9.17;;;;;;;5.86;70.12;96033.81;1749305;82;21067;-74
2022/12/02 10:52:28;;;;;;;14.43;9.47;;;;;;;5.87;70.52;96037.30;1747463;82;21550;-77
2022/12/02 10:54:57;;;;;;;14.90;10.43;;;;;;;5.83;70.42;96031.63;1747625;82;21541;-75
2022/12/02 10:57:27;;;;;;;13.77;9.33;;;;;;;5.76;70.72;96029.38;1747499;82;21099;-74
2022/12/02 10:59:56;;;;;;;15.43;11.17;;;;;;;5.74;71.25;96037.66;1747250;82;21052;-74
2022/12/02 11:02:34;;;;;;;14.13;10.20;;;;;;;5.75;71.14;96034.62;1747459;82;21059;-75
2022/12/02 11:05:26;;;;;;;13.30;9.53;;;;;;;5.75;71.40;96037.25;1747672;82;21497;-74
2022/12/02 11:08:00;;;;;;;14.90;9.37;;;;;;;5.77;71.89;96032.47;1747481;82;21496;-74
2022/12/02 11:10:38;;;;;;;14.83;10.37;;;;;;;5.74;71.32;96031.11;1747602;82;21035;-75
2022/12/02 11:13:18;;;;;;;13.60;9.67;;;;;;;5.69;71.65;96035.88;1747172;82;21558;-74
2022/12/02 11:15:51;;;;;;;15.00;10.83;;;;;;;5.67;71.91;96043.73;1745885;82;21029;-74
2022/12/02 11:18:29;;;;;;;14.60;10.20;;;;;;;5.69;72.27;96047.22;1747615;82;21516;-75
2022/12/02 11:21:07;;;;;;;18.77;11.87;;;;;;;5.69;72.32;96039.80;1747460;82;21000;-75
2022/12/02 11:23:34;;;;;;;15.50;10.63;;;;;;;5.67;72.37;96044.14;1747642;82;21091;-75
2022/12/02 11:26:08;;;;;;;15.33;10.53;;;;;;;5.67;72.63;96040.22;1747723;82;20988;-74
2022/12/02 11:28:40;;;;;;;14.77;9.93;;;;;;;5.64;72.56;96041.97;1747573;82;21004;-75
2022/12/02 11:31:18;;;;;;;15.20;10.87;;;;;;;5.59;72.73;96034.92;1746687;82;21013;-75
2022/12/02 11:34:00;;;;;;;16.00;10.10;;;;;;;5.55;72.76;96035.78;1747751;82;21080;-75
2022/12/02 11:36:28;;;;;;;17.83;11.47;;;;;;;5.47;72.78;96033.11;1747746;82;21020;-75
2022/12/02 11:39:05;;;;;;;15.07;10.60;;;;;;;5.43;72.94;96035.24;1747638;82;21546;-74
2022/12/02 11:41:52;;;;;;;15.27;11.00;;;;;;;5.43;73.08;96037.86;1737386;83;21028;-74
2022/12/02 11:44:28;;;;;;;17.50;11.17;;;;;;;5.42;73.23;96033.50;1724061;83;21032;-74
2022/12/02 11:46:58;;;;;;;18.13;11.13;;;;;;;5.40;73.31;96036.09;1701989;84;21076;-74